Time;durP1;ratioP1;P1;durP2;ratioP2;P2;SDS_P1;SDS_P2;PMS_P1;PMS_P2;Temp;Humidity;BMP_temperature;BMP_pressure;BME280_temperature;BME280_humidity;BME280_pressure;Samples;Min_cycle;Max_cycle;Signal;HPM_P1;HPM_P2
2023/12/31 00:02:05;;;;;;;5.30;3.22;;;2.70;99.90;;;;;;6282496;22;20219;-83
2023/12/31 00:04:33;;;;;;;0.50;0.50;;;2.70;99.90;;;;;;6281673;22;20242;-82
2023/12/31 00:06:59;;;;;;;3.72;3.22;;;2.80;99.90;;;;;;6282184;22;20194;-83
2023/12/31 00:09:27;;;;;;;0.50;0.50;;;2.70;99.90;;;;;;6281980;22;20190;-83
2023/12/31 00:11:56;;;;;;;1.88;1.77;;;2.70;99.90;;;;;;6282178;22;20211;-82
2023/12/31 00:14:24;;;;;;;2.75;1.75;;;2.60;99.90;;;;;;6283175;22;20194;-81
2023/12/31 00:16:51;;;;;;;1.65;1.58;;;2.70;99.90;;;;;;6286735;22;20217;-83
2023/12/31 00:19:18;;;;;;;1.83;1.73;;;2.70;99.90;;;;;;6283890;22;20226;-82
2023/12/31 00:21:45;;;;;;;2.38;2.17;;;2.60;99.90;;;;;;6281870;22;20175;-82
2023/12/31 00:24:12;;;;;;;2.38;2.28;;;2.70;99.90;;;;;;6282959;22;20234;-83
2023/12/31 00:26:40;;;;;;;0.98;0.98;;;2.60;99.90;;;;;;6282402;22;20179;-83
2023/12/31 00:29:06;;;;;;;5.88;4.43;;;2.40;99.90;;;;;;6281798;22;20186;-83
2023/12/31 00:31:34;;;;;;;3.13;2.92;;;2.50;99.90;;;;;;6255231;22;20245;-83
2023/12/31 00:34:01;;;;;;;0.60;0.60;;;2.50;99.90;;;;;;6255725;22;20179;-84
2023/12/31 00:36:29;;;;;;;2.60;2.50;;;2.50;99.90;;;;;;6254932;22;20175;-84
2023/12/31 00:38:56;;;;;;;1.02;1.02;;;2.40;99.90;;;;;;6282621;22;20186;-83
2023/12/31 00:41:23;;;;;;;7.57;2.72;;;2.30;99.90;;;;;;6285694;22;20178;-84
2023/12/31 00:43:50;;;;;;;0.75;0.75;;;2.50;99.90;;;;;;6288322;22;20171;-83
2023/12/31 00:46:18;;;;;;;2.65;1.33;;;2.50;99.90;;;;;;6285011;22;20789;-84
2023/12/31 00:48:45;;;;;;;2.90;2.75;;;2.60;99.90;;;;;;6283251;22;20186;-83
2023/12/31 00:51:11;;;;;;;2.17;2.08;;;2.80;99.90;;;;;;6255767;22;20183;-83
2023/12/31 00:53:38;;;;;;;1.83;1.73;;;3.00;99.90;;;;;;6282435;22;20253;-83
2023/12/31 00:56:08;;;;;;;2.17;2.08;;;3.20;99.90;;;;;;6255951;22;20186;-84
2023/12/31 00:58:36;;;;;;;0.60;0.60;;;3.30;99.90;;;;;;6282133;22;20277;-85
2023/12/31 01:01:03;;;;;;;0.63;0.63;;;3.40;99.90;;;;;;6283717;22;20229;-85
2023/12/31 01:03:30;;;;;;;1.30;1.30;;;3.40;99.90;;;;;;6255633;22;20179;-81
2023/12/31 01:06:07;;;;;;;6.47;1.73;;;3.10;99.90;;;;;;6280167;22;20179;-81
2023/12/31 01:08:34;;;;;;;1.80;1.70;;;3.10;99.90;;;;;;6280017;22;20221;-81
2023/12/31 01:11:01;;;;;;;4.25;4.05;;;3.00;99.90;;;;;;6253948;22;20214;-83
2023/12/31 01:13:28;;;;;;;1.77;1.55;;;3.00;99.90;;;;;;6281030;22;20213;-81
2023/12/31 01:15:55;;;;;;;1.25;1.25;;;2.90;99.90;;;;;;6254835;22;20198;-83
2023/12/31 01:18:22;;;;;;;2.13;2.03;;;2.80;99.90;;;;;;6280403;22;20183;-81
2023/12/31 01:20:49;;;;;;;0.65;0.65;;;2.90;99.90;;;;;;6281063;22;20210;-81
2023/12/31 01:23:16;;;;;;;1.92;1.83;;;2.90;99.90;;;;;;6281829;22;20179;-81
2023/12/31 01:25:44;;;;;;;1.80;1.70;;;2.70;99.90;;;;;;6280953;22;20233;-82
2023/12/31 01:28:11;;;;;;;7.07;3.95;;;2.70;99.90;;;;;;6280626;22;20190;-83
2023/12/31 01:30:39;;;;;;;1.20;1.20;;;2.50;99.90;;;;;;6280583;22;20188;-82
2023/12/31 01:33:08;;;;;;;3.28;2.35;;;2.40;99.90;;;;;;6280710;22;20183;-82
2023/12/31 01:35:35;;;;;;;1.25;1.25;;;2.60;99.90;;;;;;6281860;22;20539;-82
2023/12/31 01:38:03;;;;;;;6.38;3.63;;;2.70;99.90;;;;;;6280958;22;20179;-83
2023/12/31 01:40:31;;;;;;;3.28;2.95;;;2.80;99.90;;;;;;6281142;22;20530;-84
2023/12/31 01:42:58;;;;;;;1.38;1.38;;;2.70;99.90;;;;;;6282523;22;20179;-84
2023/12/31 01:45:25;;;;;;;1.25;1.20;;;2.60;99.90;;;;;;6255341;22;20552;-85
2023/12/31 01:47:53;;;;;;;6.30;4.57;;;2.50;99.90;;;;;;6282115;22;20199;-84
2023/12/31 01:50:21;;;;;;;3.42;2.67;;;2.50;99.90;;;;;;6257537;22;20174;-84
2023/12/31 01:52:50;;;;;;;5.28;1.83;;;2.60;99.90;;;;;;6283651;22;20221;-84
2023/12/31 01:55:19;;;;;;;1.67;1.58;;;2.60;99.90;;;;;;6282681;22;20212;-83
2023/12/31 01:57:46;;;;;;;0.40;0.40;;;2.60;99.90;;;;;;6282626;22;20234;-85
2023/12/31 02:00:14;;;;;;;1.33;1.30;;;2.60;99.90;;;;;;6291249;22;20199;-84
2023/12/31 02:02:42;;;;;;;3.17;2.97;;;2.40;99.90;;;;;;6288521;22;20179;-84
2023/12/31 02:05:11;;;;;;;1.92;1.83;;;2.30;99.90;;;;;;6281699;22;20179;-82
2023/12/31 02:07:38;;;;;;;2.28;2.17;;;2.10;99.90;;;;;;6254438;22;20206;-84
2023/12/31 02:10:06;;;;;;;3.65;3.25;;;2.30;99.90;;;;;;6255643;22;20183;-84
2023/12/31 02:12:33;;;;;;;2.13;2.03;;;2.10;99.90;;;;;;6257163;22;20183;-83
2023/12/31 02:15:01;;;;;;;1.20;1.20;;;2.20;99.90;;;;;;6283253;22;20198;-85
2023/12/31 02:17:28;;;;;;;2.13;2.03;;;2.20;99.90;;;;;;6282619;22;20184;-85
2023/12/31 02:19:55;;;;;;;1.73;1.63;;;2.00;99.90;;;;;;6254976;22;20562;-84
2023/12/31 02:22:22;;;;;;;3.08;2.97;;;2.10;99.90;;;;;;6254494;22;20179;-84
2023/12/31 02:24:53;;;;;;;0.90;0.90;;;1.90;99.90;;;;;;6282973;22;20179;-85
2023/12/31 02:27:20;;;;;;;2.97;2.80;;;1.90;99.90;;;;;;6281071;22;20499;-84
2023/12/31 02:29:47;;;;;;;1.02;1.02;;;1.90;99.90;;;;;;6284093;22;20498;-86
2023/12/31 02:32:14;;;;;;;18.30;2.90;;;1.90;99.90;;;;;;6284518;22;20190;-84
2023/12/31 02:34:45;;;;;;;1.00;1.00;;;1.80;99.90;;;;;;6285381;22;20208;-85
2023/12/31 02:37:12;;;;;;;5.90;3.13;;;1.70;99.90;;;;;;6284111;22;20262;-84
2023/12/31 02:39:39;;;;;;;3.05;2.35;;;1.70;99.90;;;;;;6283022;22;20386;-85
2023/12/31 02:42:07;;;;;;;1.45;1.45;;;1.60;99.90;;;;;;6281995;22;20179;-84
2023/12/31 02:44:34;;;;;;;2.45;2.35;;;1.60;99.90;;;;;;6254325;22;20179;-84
2023/12/31 02:47:01;;;;;;;6.68;1.77;;;1.60;99.90;;;;;;6281751;22;20179;-84
2023/12/31 02:49:28;;;;;;;1.25;1.23;;;1.50;99.90;;;;;;6281352;22;20167;-84
2023/12/31 02:51:55;;;;;;;3.70;3.40;;;1.40;99.90;;;;;;6283867;22;20198;-83
2023/12/31 02:54:22;;;;;;;0.70;0.70;;;1.30;99.90;;;;;;6283392;22;20207;-82
2023/12/31 02:56:49;;;;;;;1.25;1.25;;;1.20;99.90;;;;;;6257821;22;20175;-83
2023/12/31 02:59:16;;;;;;;1.33;1.25;;;1.20;99.90;;;;;;6286511;22;20239;-85
2023/12/31 03:01:43;;;;;;;2.17;2.08;;;1.30;99.90;;;;;;6294570;22;20202;-83
2023/12/31 03:04:10;;;;;;;1.67;1.58;;;1.20;99.90;;;;;;6299695;22;20194;-84
2023/12/31 03:06:41;;;;;;;1.40;1.40;;;1.20;99.90;;;;;;6301019;22;20210;-86
2023/12/31 03:09:08;;;;;;;1.02;1.02;;;1.20;99.90;;;;;;6301081;22;20226;-84
2023/12/31 03:11:36;;;;;;;2.28;2.17;;;1.20;99.90;;;;;;6260969;22;20433;-84
2023/12/31 03:14:03;;;;;;;0.95;0.95;;;1.20;99.90;;;;;;6259876;22;20398;-82
2023/12/31 03:16:30;;;;;;;1.90;1.80;;;1.20;99.90;;;;;;6282766;22;20179;-83
2023/12/31 03:18:57;;;;;;;2.17;1.98;;;1.30;99.90;;;;;;6283463;22;20182;-84
2023/12/31 03:21:24;;;;;;;2.22;2.13;;;1.20;99.90;;;;;;6282443;22;20222;-84
2023/12/31 03:23:51;;;;;;;2.15;2.05;;;1.20;99.90;;;;;;6283014;22;20237;-83
2023/12/31 03:26:19;;;;;;;3.47;3.22;;;1.20;99.90;;;;;;6281915;22;20214;-84
2023/12/31 03:28:46;;;;;;;1.70;1.60;;;1.20;99.90;;;;;;6281963;22;20179;-83
2023/12/31 03:31:13;;;;;;;1.92;1.83;;;1.30;99.90;;;;;;6282964;22;20412;-84
2023/12/31 03:33:40;;;;;;;2.30;2.20;;;1.40;99.90;;;;;;6282886;22;20487;-84
2023/12/31 03:36:07;;;;;;;2.60;2.40;;;1.40;99.90;;;;;;6256057;22;20213;-82
2023/12/31 03:38:34;;;;;;;3.13;2.92;;;1.40;99.90;;;;;;6282489;22;20190;-83
2023/12/31 03:41:01;;;;;;;1.17;1.15;;;1.30;99.90;;;;;;6255682;22;20226;-81
2023/12/31 03:43:28;;;;;;;3.72;3.53;;;1.20;99.90;;;;;;6282517;22;20214;-83
2023/12/31 03:45:56;;;;;;;3.80;2.65;;;1.40;99.90;;;;;;6281866;22;20393;-82
2023/12/31 03:48:24;;;;;;;2.35;2.15;;;1.50;99.90;;;;;;6282038;22;20180;-82
2023/12/31 03:50:51;;;;;;;5.32;4.22;;;1.50;99.90;;;;;;6282400;22;20185;-82
2023/12/31 03:53:18;;;;;;;21.55;3.33;;;1.40;99.90;;;;;;6290457;22;20175;-81
2023/12/31 03:55:45;;;;;;;0.95;0.95;;;1.50;99.90;;;;;;6266655;22;20234;-82
2023/12/31 03:58:11;;;;;;;2.78;2.55;;;1.40;99.90;;;;;;6293363;22;20182;-83
2023/12/31 04:00:39;;;;;;;2.35;2.25;;;1.30;99.90;;;;;;6294483;22;20205;-81
2023/12/31 04:03:07;;;;;;;2.15;2.05;;;1.40;99.90;;;;;;6283692;22;20185;-83
2023/12/31 04:05:34;;;;;;;1.77;1.67;;;1.50;99.90;;;;;;6285508;22;20178;-84
2023/12/31 04:08:01;;;;;;;2.85;1.45;;;1.30;99.90;;;;;;6285246;22;20229;-83
2023/12/31 04:10:28;;;;;;;2.15;2.05;;;1.30;99.90;;;;;;6282844;22;20238;-82
2023/12/31 04:12:56;;;;;;;2.53;2.17;;;1.30;99.90;;;;;;6282766;22;20206;-83
2023/12/31 04:15:22;;;;;;;0.93;0.93;;;1.30;99.90;;;;;;6283565;22;20189;-83
2023/12/31 04:17:51;;;;;;;1.40;1.38;;;1.30;99.90;;;;;;6283219;22;20487;-83
2023/12/31 04:20:18;;;;;;;2.17;2.08;;;1.30;99.90;;;;;;6282985;22;20198;-85
2023/12/31 04:22:45;;;;;;;1.90;1.80;;;1.20;99.90;;;;;;6284270;22;20186;-84
2023/12/31 04:25:13;;;;;;;5.13;3.03;;;1.20;99.90;;;;;;6284676;22;20506;-83
2023/12/31 04:27:40;;;;;;;1.50;1.40;;;1.20;99.90;;;;;;6281992;22;20366;-83
2023/12/31 04:30:08;;;;;;;2.67;2.58;;;1.20;99.90;;;;;;6281888;22;20171;-83
2023/12/31 04:32:34;;;;;;;1.98;1.92;;;1.20;99.90;;;;;;6282908;22;20206;-82
2023/12/31 04:35:03;;;;;;;1.67;1.58;;;1.50;99.90;;;;;;6286562;22;20205;-82
2023/12/31 04:37:30;;;;;;;2.33;2.25;;;1.70;99.90;;;;;;6286091;22;20175;-83
2023/12/31 04:39:57;;;;;;;1.35;1.35;;;1.70;99.90;;;;;;6282943;22;20187;-83
2023/12/31 04:42:24;;;;;;;1.73;1.63;;;1.70;99.90;;;;;;6282263;22;20186;-83
2023/12/31 04:44:52;;;;;;;2.50;2.40;;;1.70;99.90;;;;;;6282632;22;20499;-83
2023/12/31 04:47:20;;;;;;;3.70;3.38;;;1.70;99.90;;;;;;6282517;22;20507;-81
2023/12/31 04:49:47;;;;;;;1.38;1.30;;;1.60;99.90;;;;;;6282092;22;20171;-82
2023/12/31 04:52:14;;;;;;;2.00;1.90;;;1.60;99.90;;;;;;6282401;22;20183;-82
2023/12/31 04:54:41;;;;;;;4.88;2.85;;;1.60;99.90;;;;;;6284702;22;20179;-83
2023/12/31 04:57:08;;;;;;;3.53;3.22;;;1.50;99.90;;;;;;6281819;22;20232;-83
2023/12/31 04:59:36;;;;;;;1.40;1.40;;;1.60;99.90;;;;;;6281735;22;20245;-81
2023/12/31 05:02:03;;;;;;;1.92;1.83;;;1.60;99.90;;;;;;6281097;22;20210;-82
2023/12/31 05:04:31;;;;;;;2.45;2.25;;;1.50;99.90;;;;;;6281326;22;20274;-81
2023/12/31 05:06:59;;;;;;;4.53;4.15;;;1.40;99.90;;;;;;6281276;22;20179;-82
2023/12/31 05:09:26;;;;;;;3.20;2.55;;;1.40;99.90;;;;;;6281231;22;20723;-82
2023/12/31 05:11:54;;;;;;;3.85;3.00;;;1.40;99.90;;;;;;6281440;22;20221;-81
2023/12/31 05:14:21;;;;;;;1.92;1.83;;;1.30;99.90;;;;;;6281604;22;20206;-83
2023/12/31 05:16:48;;;;;;;2.80;2.60;;;1.20;99.90;;;;;;6281704;22;20182;-83
2023/12/31 05:19:15;;;;;;;6.20;2.90;;;1.40;99.90;;;;;;6281464;22;20210;-82
2023/12/31 05:21:42;;;;;;;2.05;1.95;;;1.70;99.90;;;;;;6282394;22;20248;-82
2023/12/31 05:24:08;;;;;;;1.33;1.33;;;1.60;99.90;;;;;;6282124;22;20245;-83
2023/12/31 05:26:36;;;;;;;3.83;3.63;;;1.50;99.90;;;;;;6255029;22;20179;-83
2023/12/31 05:29:02;;;;;;;1.75;1.75;;;1.30;99.90;;;;;;6255236;22;20258;-82
2023/12/31 05:31:29;;;;;;;2.17;2.08;;;1.30;99.90;;;;;;6255176;22;20175;-83
2023/12/31 05:33:57;;;;;;;2.67;2.58;;;1.30;99.90;;;;;;6281602;22;20280;-82
2023/12/31 05:36:24;;;;;;;7.95;2.88;;;1.30;99.90;;;;;;6282126;22;20190;-84
2023/12/31 05:38:51;;;;;;;1.23;1.23;;;1.40;99.90;;;;;;6281297;22;20182;-84
2023/12/31 05:41:18;;;;;;;2.50;2.40;;;1.30;99.90;;;;;;6281786;22;20691;-84
2023/12/31 05:43:45;;;;;;;2.47;2.08;;;1.30;99.90;;;;;;6281468;22;20270;-82
2023/12/31 05:46:12;;;;;;;4.80;4.40;;;1.30;99.90;;;;;;6285113;22;20182;-83
2023/12/31 05:48:39;;;;;;;3.58;3.28;;;1.30;99.90;;;;;;6255795;22;20207;-83
2023/12/31 05:51:06;;;;;;;2.80;2.70;;;1.40;99.90;;;;;;6282500;22;20521;-83
2023/12/31 05:53:33;;;;;;;4.30;2.95;;;1.30;99.90;;;;;;6282218;22;20247;-83
2023/12/31 05:56:00;;;;;;;2.05;1.95;;;1.30;99.90;;;;;;6282459;22;20694;-83
2023/12/31 05:58:28;;;;;;;2.72;2.55;;;1.30;99.90;;;;;;6282376;22;20181;-83
2023/12/31 06:00:55;;;;;;;1.88;1.77;;;1.20;99.90;;;;;;6282071;22;20233;-83
2023/12/31 06:03:22;;;;;;;3.17;2.97;;;1.30;99.90;;;;;;6281739;22;20167;-82
2023/12/31 06:05:49;;;;;;;2.72;2.55;;;1.20;99.90;;;;;;6281235;22;20525;-83
2023/12/31 06:08:16;;;;;;;4.50;4.10;;;1.40;99.90;;;;;;6281040;22;20206;-84
2023/12/31 06:10:43;;;;;;;1.70;1.60;;;1.50;99.90;;;;;;6282027;22;20372;-84
2023/12/31 06:13:10;;;;;;;2.83;2.72;;;1.50;99.90;;;;;;6281805;22;20183;-81
2023/12/31 06:15:37;;;;;;;1.90;1.80;;;1.40;99.90;;;;;;6281652;22;20420;-82
2023/12/31 06:18:05;;;;;;;3.80;3.15;;;1.50;99.90;;;;;;6281674;22;20201;-82
2023/12/31 06:20:33;;;;;;;13.23;3.95;;;1.40;99.90;;;;;;6255569;22;20187;-81
2023/12/31 06:23:00;;;;;;;4.47;3.60;;;1.50;99.90;;;;;;6282953;22;20179;-83
2023/12/31 06:25:28;;;;;;;13.60;7.13;;;1.40;99.90;;;;;;6253898;22;20178;-81
2023/12/31 06:27:57;;;;;;;2.53;2.42;;;1.50;99.90;;;;;;6281214;22;20175;-82
2023/12/31 06:30:23;;;;;;;3.60;3.40;;;1.30;99.90;;;;;;6281847;22;20179;-82
2023/12/31 06:32:51;;;;;;;7.63;3.13;;;1.30;99.90;;;;;;6281383;22;20179;-82
2023/12/31 06:35:18;;;;;;;1.55;1.48;;;1.40;99.90;;;;;;6282460;22;20181;-83
2023/12/31 06:37:46;;;;;;;3.33;3.13;;;1.30;99.90;;;;;;6280200;22;20234;-81
2023/12/31 06:40:14;;;;;;;11.80;5.53;;;1.30;99.90;;;;;;6253753;22;20193;-82
2023/12/31 06:42:41;;;;;;;2.67;2.58;;;1.20;99.90;;;;;;6280812;22;20194;-83
2023/12/31 06:45:08;;;;;;;3.97;3.75;;;1.20;99.90;;;;;;6280337;22;20206;-81
2023/12/31 06:47:35;;;;;;;3.03;2.92;;;1.20;99.90;;;;;;6279936;22;20180;-81
2023/12/31 06:50:02;;;;;;;2.45;2.25;;;1.20;99.90;;;;;;6255286;22;20367;-82
2023/12/31 06:52:29;;;;;;;3.78;3.58;;;1.10;99.90;;;;;;6281910;22;20183;-80
2023/12/31 06:54:59;;;;;;;3.83;3.58;;;1.10;99.90;;;;;;6282160;22;20182;-81
2023/12/31 06:57:27;;;;;;;2.60;2.47;;;1.10;99.90;;;;;;6279913;22;20583;-81
2023/12/31 06:59:53;;;;;;;6.97;1.98;;;1.00;99.90;;;;;;6281180;22;20179;-83
2023/12/31 07:02:20;;;;;;;2.95;2.83;;;0.90;99.90;;;;;;6287248;22;20214;-83
2023/12/31 07:04:47;;;;;;;4.63;4.22;;;0.90;99.90;;;;;;6295072;22;20187;-82
2023/12/31 07:07:14;;;;;;;4.18;3.78;;;0.90;99.90;;;;;;6280654;22;20344;-85
2023/12/31 07:09:42;;;;;;;4.03;2.22;;;0.90;99.90;;;;;;6279537;22;20505;-80
2023/12/31 07:12:09;;;;;;;2.25;2.15;;;1.00;99.90;;;;;;6253952;22;20186;-81
2023/12/31 07:14:36;;;;;;;1.02;1.02;;;1.00;99.90;;;;;;6281008;22;20333;-81
2023/12/31 07:17:03;;;;;;;2.83;2.72;;;1.00;99.90;;;;;;6280439;22;20210;-81
2023/12/31 07:19:30;;;;;;;3.90;3.60;;;1.10;99.90;;;;;;6253629;22;20201;-82
2023/12/31 07:21:57;;;;;;;2.17;2.08;;;1.10;99.90;;;;;;6281026;22;20198;-82
2023/12/31 07:24:25;;;;;;;8.13;4.80;;;1.00;99.90;;;;;;6281478;22;20238;-83
2023/12/31 07:26:52;;;;;;;5.43;3.55;;;1.00;99.90;;;;;;6281362;22;20179;-81
2023/12/31 07:29:19;;;;;;;3.85;3.65;;;1.20;99.90;;;;;;6280457;22;20213;-82
2023/12/31 07:31:46;;;;;;;4.97;4.57;;;1.20;99.90;;;;;;6279789;22;20183;-82
2023/12/31 07:34:15;;;;;;;4.45;4.07;;;1.20;99.90;;;;;;6280793;22;20233;-81
2023/12/31 07:36:43;;;;;;;3.80;3.22;;;1.20;99.90;;;;;;6279278;22;20229;-80
2023/12/31 07:39:10;;;;;;;6.40;5.90;;;1.40;99.90;;;;;;6281399;22;20213;-80
2023/12/31 07:41:37;;;;;;;4.70;3.15;;;1.40;99.90;;;;;;6254651;22;20199;-80
2023/12/31 07:44:05;;;;;;;3.17;2.97;;;1.50;99.90;;;;;;6281012;22;20217;-83
2023/12/31 07:46:32;;;;;;;3.92;3.53;;;1.50;99.90;;;;;;6281344;22;20178;-81
2023/12/31 07:48:59;;;;;;;2.67;2.50;;;1.60;99.90;;;;;;6254437;22;20179;-82
2023/12/31 07:51:26;;;;;;;2.33;2.20;;;1.60;99.90;;;;;;6281805;22;20183;-81
2023/12/31 07:53:53;;;;;;;5.20;4.43;;;1.60;99.90;;;;;;6296396;22;20178;-80
2023/12/31 07:56:20;;;;;;;4.80;4.40;;;1.60;99.90;;;;;;6300601;22;20210;-81
2023/12/31 07:58:47;;;;;;;3.35;3.17;;;1.70;99.90;;;;;;6301083;22;20163;-81
2023/12/31 08:01:15;;;;;;;2.53;2.38;;;1.80;99.90;;;;;;6287454;22;20194;-81
2023/12/31 08:03:42;;;;;;;2.25;2.08;;;1.90;99.90;;;;;;6282165;22;20185;-80
2023/12/31 08:06:09;;;;;;;3.38;3.08;;;1.90;99.90;;;;;;6280077;22;20179;-80
2023/12/31 08:08:36;;;;;;;1.38;1.35;;;1.90;99.90;;;;;;6279864;22;20178;-81
2023/12/31 08:11:04;;;;;;;3.38;3.08;;;2.00;99.90;;;;;;6280383;22;20239;-80
2023/12/31 08:13:31;;;;;;;3.53;3.33;;;2.10;99.90;;;;;;6280195;22;20537;-81
2023/12/31 08:16:00;;;;;;;3.00;2.85;;;2.20;99.90;;;;;;6255725;22;20179;-80
2023/12/31 08:18:27;;;;;;;1.77;1.73;;;2.20;99.90;;;;;;6282389;22;20185;-83
2023/12/31 08:20:54;;;;;;;5.78;5.20;;;2.30;99.90;;;;;;6282457;22;20178;-83
2023/12/31 08:23:21;;;;;;;4.70;4.40;;;2.30;99.90;;;;;;6289730;22;20198;-82
2023/12/31 08:25:49;;;;;;;3.05;2.67;;;2.30;99.90;;;;;;6288037;22;20202;-81
2023/12/31 08:28:15;;;;;;;0.98;0.98;;;2.30;99.90;;;;;;6284336;22;20182;-82
2023/12/31 08:30:43;;;;;;;1.92;1.83;;;2.40;99.90;;;;;;6289879;22;20193;-82
2023/12/31 08:33:10;;;;;;;1.95;1.85;;;2.30;99.90;;;;;;6266254;22;20175;-82
2023/12/31 08:35:36;;;;;;;13.40;3.13;;;2.30;99.90;;;;;;6299751;22;20175;-81
2023/12/31 08:38:04;;;;;;;5.07;4.68;;;2.40;99.90;;;;;;6290328;22;20183;-81
2023/12/31 08:40:31;;;;;;;3.28;3.08;;;2.40;99.90;;;;;;6288291;22;20170;-82
2023/12/31 08:42:58;;;;;;;2.55;2.45;;;2.50;99.90;;;;;;6269350;22;20203;-81
2023/12/31 08:45:25;;;;;;;2.05;1.98;;;2.60;99.90;;;;;;6289130;22;20260;-80
2023/12/31 08:47:52;;;;;;;2.00;1.90;;;2.70;99.90;;;;;;6290068;22;20179;-79
2023/12/31 08:50:20;;;;;;;1.23;1.23;;;2.60;99.90;;;;;;6301411;22;20205;-81
2023/12/31 08:52:47;;;;;;;9.95;4.60;;;2.70;99.90;;;;;;6300103;22;20170;-80
2023/12/31 08:55:16;;;;;;;1.90;1.80;;;2.80;99.90;;;;;;6288720;22;20183;-80
2023/12/31 08:57:49;;;;;;;4.72;3.42;;;2.80;99.90;;;;;;6286150;22;20172;-79
2023/12/31 09:00:19;;;;;;;3.10;2.90;;;2.90;99.90;;;;;;6260538;22;20171;-80
2023/12/31 09:02:47;;;;;;;2.53;2.42;;;3.00;99.90;;;;;;6252828;22;20199;-79
2023/12/31 09:05:14;;;;;;;1.20;1.20;;;3.10;99.90;;;;;;6254028;22;20178;-81
2023/12/31 09:07:41;;;;;;;3.55;3.35;;;3.20;99.90;;;;;;6279654;22;20252;-79
2023/12/31 09:10:09;;;;;;;1.85;1.75;;;3.30;99.90;;;;;;6278109;22;20179;-81
2023/12/31 09:12:36;;;;;;;0.45;0.45;;;3.40;99.90;;;;;;6253250;22;20202;-79
2023/12/31 09:15:05;;;;;;;3.22;3.08;;;3.40;99.90;;;;;;6280500;22;20183;-79
2023/12/31 09:17:32;;;;;;;4.15;3.00;;;3.30;99.90;;;;;;6279998;22;20547;-80
2023/12/31 09:20:05;;;;;;;3.05;2.85;;;3.30;99.90;;;;;;6280877;22;20178;-80
2023/12/31 09:22:33;;;;;;;1.40;1.30;;;3.40;99.90;;;;;;6279250;22;20198;-80
2023/12/31 09:25:01;;;;;;;1.77;1.70;;;3.40;99.90;;;;;;6280333;22;20224;-79
2023/12/31 09:27:27;;;;;;;9.93;5.30;;;3.50;99.90;;;;;;6279788;22;20294;-81
2023/12/31 09:29:54;;;;;;;2.25;2.15;;;3.60;99.90;;;;;;6279747;22;20179;-81
2023/12/31 09:32:21;;;;;;;2.50;2.38;;;3.60;99.90;;;;;;6280151;22;20171;-81
2023/12/31 09:34:48;;;;;;;0.57;0.57;;;3.70;99.90;;;;;;6278819;22;20179;-80
2023/12/31 09:37:19;;;;;;;1.90;1.80;;;3.70;99.90;;;;;;6253088;22;20174;-80
2023/12/31 09:39:47;;;;;;;2.30;2.20;;;3.70;99.90;;;;;;6279619;22;20486;-81
2023/12/31 09:42:19;;;;;;;1.77;1.67;;;3.70;99.90;;;;;;6276742;22;20195;-80
2023/12/31 09:44:49;;;;;;;2.40;2.22;;;3.70;99.90;;;;;;6278460;22;20159;-79
2023/12/31 09:47:15;;;;;;;1.58;1.48;;;3.70;99.90;;;;;;6278896;22;20389;-80
2023/12/31 09:49:44;;;;;;;3.17;2.97;;;3.80;99.90;;;;;;6278037;22;20171;-81
2023/12/31 09:52:12;;;;;;;1.30;1.30;;;3.80;99.90;;;;;;6279728;22;20657;-80
2023/12/31 09:54:41;;;;;;;1.77;1.67;;;3.90;99.90;;;;;;6281214;22;20182;-80
2023/12/31 09:57:08;;;;;;;1.67;1.58;;;3.80;99.90;;;;;;6282221;22;20186;-79
2023/12/31 09:59:42;;;;;;;0.73;0.73;;;3.80;99.90;;;;;;6280230;22;20225;-81
2023/12/31 10:02:18;;;;;;;4.65;1.70;;;3.90;99.90;;;;;;6280801;22;20198;-80
2023/12/31 10:04:47;;;;;;;1.02;0.90;;;3.90;99.90;;;;;;6255498;22;20463;-80
2023/12/31 10:07:15;;;;;;;3.85;3.25;;;3.90;99.90;;;;;;6281894;22;20643;-80
2023/12/31 10:09:43;;;;;;;2.15;2.05;;;4.00;99.90;;;;;;6280646;22;20178;-81
2023/12/31 10:12:10;;;;;;;1.60;1.50;;;4.00;99.90;;;;;;6279481;22;20229;-80
2023/12/31 10:14:38;;;;;;;4.07;3.78;;;4.00;99.90;;;;;;6279312;22;20457;-81
2023/12/31 10:17:08;;;;;;;1.50;1.50;;;4.00;99.90;;;;;;6280640;22;20734;-80
2023/12/31 10:19:35;;;;;;;0.98;0.98;;;3.90;99.90;;;;;;6290079;22;20193;-80
2023/12/31 10:22:06;;;;;;;1.00;1.00;;;3.90;99.90;;;;;;6293820;22;20558;-80
2023/12/31 10:24:32;;;;;;;1.58;1.55;;;3.90;99.90;;;;;;6295888;22;20190;-80
2023/12/31 10:27:05;;;;;;;3.33;3.10;;;3.90;99.90;;;;;;6296727;22;20478;-82
2023/12/31 10:29:32;;;;;;;0.80;0.80;;;3.90;99.90;;;;;;6296151;22;20167;-78
2023/12/31 10:32:02;;;;;;;0.88;0.88;;;3.90;99.90;;;;;;6296987;22;20175;-82
2023/12/31 10:34:29;;;;;;;1.52;1.42;;;3.80;99.90;;;;;;6295792;22;20181;-82
2023/12/31 10:37:06;;;;;;;1.85;1.75;;;3.80;99.90;;;;;;6296906;22;20175;-78
2023/12/31 10:39:36;;;;;;;2.13;2.03;;;3.80;99.90;;;;;;6294963;22;20187;-80
2023/12/31 10:42:05;;;;;;;0.98;0.98;;;3.90;99.90;;;;;;6269850;22;20198;-78
2023/12/31 10:44:36;;;;;;;8.00;5.78;;;3.90;99.90;;;;;;6292733;22;20178;-81
2023/12/31 10:47:09;;;;;;;6.60;6.03;;;4.00;99.90;;;;;;6298781;22;20175;-80
2023/12/31 10:49:43;;;;;;;15.95;3.80;;;4.10;99.90;;;;;;6300177;22;20202;-80
2023/12/31 10:52:13;;;;;;;2.38;2.17;;;4.20;99.90;;;;;;6298920;22;20157;-79
2023/12/31 10:54:51;;;;;;;2.53;2.42;;;4.20;99.90;;;;;;6285513;22;20213;-80
2023/12/31 10:57:21;;;;;;;1.98;1.88;;;4.20;99.90;;;;;;6271741;22;20190;-81
2023/12/31 10:59:50;;;;;;;2.10;2.00;;;4.20;99.90;;;;;;6299592;22;20183;-82
2023/12/31 11:02:20;;;;;;;5.28;2.58;;;4.20;99.90;;;;;;6299369;22;20195;-83
2023/12/31 11:04:49;;;;;;;0.80;0.80;;;4.30;99.90;;;;;;6300131;22;20168;-82
2023/12/31 11:07:18;;;;;;;2.28;2.15;;;4.30;99.90;;;;;;6300705;22;20167;-85
2023/12/31 11:09:46;;;;;;;1.67;1.58;;;4.40;99.90;;;;;;6303152;22;20175;-83
2023/12/31 11:12:18;;;;;;;1.45;1.35;;;4.40;99.90;;;;;;6278302;22;20179;-84
2023/12/31 11:15:10;;;;;;;8.57;5.32;;;4.40;99.90;;;;;;6304484;22;20182;-81
2023/12/31 11:18:13;;;;;;;1.08;1.08;;;4.50;99.90;;;;;;6304645;22;20207;-82
2023/12/31 11:21:07;;;;;;;1.60;1.50;;;4.60;99.90;;;;;;6277659;22;20151;-82
2023/12/31 11:23:40;;;;;;;2.33;1.70;;;4.60;99.90;;;;;;6301459;22;20179;-82
2023/12/31 11:26:08;;;;;;;2.35;2.25;;;4.60;99.90;;;;;;6296425;22;20206;-82
2023/12/31 11:28:35;;;;;;;1.90;1.83;;;4.80;99.90;;;;;;6286381;22;20179;-83
2023/12/31 11:31:10;;;;;;;1.50;1.50;;;4.90;99.90;;;;;;6287391;22;20502;-86
2023/12/31 11:33:39;;;;;;;1.00;1.00;;;4.80;99.90;;;;;;6287749;22;20217;-79
2023/12/31 11:36:15;;;;;;;1.33;1.33;;;4.80;99.90;;;;;;6286050;22;20363;-81
2023/12/31 11:38:56;;;;;;;1.42;1.33;;;4.80;99.90;;;;;;6284498;22;20202;-82
2023/12/31 11:41:24;;;;;;;2.90;2.78;;;4.70;99.90;;;;;;6284422;22;20159;-81
2023/12/31 11:43:52;;;;;;;0.95;0.95;;;4.80;99.90;;;;;;6285464;22;20199;-81
2023/12/31 11:46:33;;;;;;;2.60;2.50;;;4.80;99.90;;;;;;6284118;22;20179;-83
2023/12/31 11:49:01;;;;;;;1.77;1.67;;;4.70;99.90;;;;;;6284509;22;20363;-83
2023/12/31 11:51:29;;;;;;;1.70;1.60;;;4.70;99.90;;;;;;6283636;22;20221;-80
2023/12/31 11:53:59;;;;;;;2.17;2.08;;;4.70;99.90;;;;;;6283519;22;20191;-81
2023/12/31 11:56:30;;;;;;;2.00;1.92;;;4.70;99.90;;;;;;6283644;22;20403;-84
2023/12/31 11:58:57;;;;;;;2.47;2.38;;;4.70;99.90;;;;;;6283714;22;20221;-81
2023/12/31 12:01:26;;;;;;;2.60;2.40;;;4.80;99.90;;;;;;6283511;22;20246;-83
2023/12/31 12:03:57;;;;;;;2.67;2.45;;;4.90;99.90;;;;;;6255925;22;20441;-84
2023/12/31 12:06:25;;;;;;;2.88;2.42;;;5.10;99.90;;;;;;6283665;22;20529;-83
2023/12/31 12:08:51;;;;;;;2.45;1.80;;;5.10;99.90;;;;;;6255670;22;20684;-82
2023/12/31 12:11:21;;;;;;;0.88;0.88;;;5.10;99.90;;;;;;6282453;22;20206;-84
2023/12/31 12:13:49;;;;;;;1.80;1.70;;;5.20;99.90;;;;;;6255453;22;20234;-83
2023/12/31 12:16:16;;;;;;;2.67;2.58;;;5.20;99.90;;;;;;6257100;22;20197;-85
2023/12/31 12:18:43;;;;;;;1.30;1.30;;;5.20;99.90;;;;;;6284418;22;20190;-81
2023/12/31 12:21:11;;;;;;;3.15;2.95;;;5.20;99.90;;;;;;6284631;22;20182;-81
2023/12/31 12:23:38;;;;;;;2.95;2.75;;;5.30;99.90;;;;;;6285195;22;20499;-90
2023/12/31 12:26:05;;;;;;;1.95;1.85;;;5.30;99.90;;;;;;6283599;22;20510;-80
2023/12/31 12:28:33;;;;;;;1.42;1.33;;;5.30;99.90;;;;;;6282661;22;20170;-81
2023/12/31 12:31:01;;;;;;;1.70;1.63;;;5.40;99.90;;;;;;6283977;22;20234;-84
2023/12/31 12:33:27;;;;;;;1.38;1.35;;;5.40;99.90;;;;;;6285546;22;20210;-83
2023/12/31 12:35:56;;;;;;;2.70;2.55;;;5.50;99.90;;;;;;6283984;22;20175;-80
2023/12/31 12:38:25;;;;;;;1.00;1.00;;;5.60;99.90;;;;;;6283398;22;20201;-80
2023/12/31 12:41:04;;;;;;;2.67;2.47;;;5.50;99.90;;;;;;6296455;22;20178;-80
2023/12/31 12:43:32;;;;;;;1.90;1.77;;;5.50;99.90;;;;;;6274181;22;20226;-83
2023/12/31 12:46:06;;;;;;;1.90;1.80;;;5.50;99.90;;;;;;6302145;22;20201;-84
2023/12/31 12:48:33;;;;;;;3.65;3.42;;;5.40;99.90;;;;;;6262042;22;20402;-83
2023/12/31 12:51:00;;;;;;;4.90;2.30;;;5.40;99.90;;;;;;6282989;22;20179;-82
2023/12/31 12:53:27;;;;;;;2.40;2.33;;;5.40;99.90;;;;;;6282890;22;20182;-85
2023/12/31 12:55:58;;;;;;;5.07;4.68;;;5.40;99.90;;;;;;6231325;22;20179;-83
2023/12/31 12:58:24;;;;;;;2.97;2.78;;;5.40;99.90;;;;;;6282953;22;20396;-82
2023/12/31 13:00:52;;;;;;;6.90;3.55;;;5.40;99.90;;;;;;6282988;22;20412;-82
2023/12/31 13:03:19;;;;;;;6.50;5.95;;;5.40;99.90;;;;;;6255458;22;20506;-81